Main page
METAR-TAF:

METAR-TAF

Airports :

Accra, Ghana

Kotoka International Airport

latitude: 05-36N, longitude: 000-10W, elevation: 68 m

Current weather observation

The report was made 1 hour and 5 minutes ago, at 11:00 UTC
Wind 7 kt from the West
Temperature 28°C
Humidity 84%
Pressure 1013 hPa
Visibility 10 km or more
Few clouds at a height of 1700 ft

METAR: DGAA 261100Z 26007KT 9999 FEW017 28/25 Q1013 NOSIG

Time: 12:05 (12:05 UTC)


TAF: missing

Weather observations and forecasts of more than 4000 airports (METAR and TAF reports).

The available stations are represented by yellow and red dots on the map.

Hover mouse over dot to see the name of the station.

Then click to see weather observations and forecasts.

To change the map : click on the green buttons with a black cross to zoom in, on the green button with a dash to zoom out, or on the green arrows for adjacent maps.


METAR-TAF: